createdAt,value
2023-08-22T00:02:51.119Z,20.11
2023-08-22T00:06:11.822Z,20.09
2023-08-22T00:09:36.800Z,20.05
2023-08-22T00:13:00.713Z,20.02
2023-08-22T00:16:19.799Z,19.99
2023-08-22T00:19:41.253Z,19.97
2023-08-22T00:22:59.370Z,19.94
2023-08-22T00:26:19.375Z,19.93
2023-08-22T00:29:37.882Z,19.93
2023-08-22T00:32:50.593Z,19.93
2023-08-22T00:36:15.622Z,19.93
2023-08-22T00:39:51.894Z,19.93
2023-08-22T00:43:14.705Z,19.95
2023-08-22T00:46:39.558Z,19.98
2023-08-22T00:49:59.553Z,20.01
2023-08-22T00:53:18.404Z,20.03
2023-08-22T00:56:38.090Z,20.05
2023-08-22T01:00:05.343Z,20.08
2023-08-22T01:03:20.460Z,20.09
2023-08-22T01:07:07.422Z,20.10
2023-08-22T01:10:43.461Z,20.10
2023-08-22T01:14:07.752Z,20.08
2023-08-22T01:17:29.237Z,20.04
2023-08-22T01:21:07.231Z,19.99
2023-08-22T01:24:27.635Z,19.92
2023-08-22T01:27:52.256Z,19.88
2023-08-22T01:31:08.599Z,19.82
2023-08-22T01:34:30.689Z,19.78
2023-08-22T01:37:48.073Z,19.74
2023-08-22T01:41:17.089Z,19.70
2023-08-22T01:44:38.393Z,19.66
2023-08-22T01:47:56.746Z,19.62
2023-08-22T01:51:16.765Z,19.58
2023-08-22T01:54:35.933Z,19.54
2023-08-22T01:57:54.475Z,19.50
2023-08-22T02:01:14.577Z,19.48
2023-08-22T02:04:32.802Z,19.46
2023-08-22T02:07:56.875Z,19.46
2023-08-22T02:11:16.231Z,19.45
2023-08-22T02:14:35.674Z,19.45
2023-08-22T02:17:57.638Z,19.43
2023-08-22T02:21:19.667Z,19.40
2023-08-22T02:24:33.148Z,19.39
2023-08-22T02:27:54.382Z,19.39
2023-08-22T02:31:03.405Z,19.40
2023-08-22T02:34:10.113Z,19.41
2023-08-22T02:37:20.921Z,19.40
2023-08-22T02:40:28.213Z,19.39
2023-08-22T02:43:38.935Z,19.39
2023-08-22T02:46:49.909Z,19.36
2023-08-22T02:50:09.661Z,19.34
2023-08-22T02:53:21.131Z,19.33
2023-08-22T02:56:28.469Z,19.33
2023-08-22T02:59:38.937Z,19.34
2023-08-22T03:02:46.227Z,19.35
2023-08-22T03:06:11.818Z,19.38
2023-08-22T03:09:23.638Z,19.43
2023-08-22T03:12:31.319Z,19.47
2023-08-22T03:15:50.384Z,19.51
2023-08-22T03:19:00.648Z,19.51
2023-08-22T03:22:20.235Z,19.50
2023-08-22T03:25:27.847Z,19.48
2023-08-22T03:28:38.610Z,19.45
2023-08-22T03:31:46.487Z,19.42
2023-08-22T03:34:57.411Z,19.41
2023-08-22T03:38:18.297Z,19.41
2023-08-22T03:41:33.844Z,19.42
2023-08-22T03:44:56.010Z,19.45
2023-08-22T03:48:10.262Z,19.48
2023-08-22T03:51:25.669Z,19.50
2023-08-22T03:54:32.696Z,19.51
2023-08-22T03:57:44.120Z,19.54
2023-08-22T04:01:09.607Z,19.57
2023-08-22T04:04:18.496Z,19.59
2023-08-22T04:07:25.619Z,19.61
2023-08-22T04:10:45.107Z,19.65
2023-08-22T04:13:55.895Z,19.70
2023-08-22T04:17:05.604Z,19.76
2023-08-22T04:20:18.759Z,19.84
2023-08-22T04:23:38.629Z,19.92
2023-08-22T04:26:49.255Z,19.98
2023-08-22T04:30:00.546Z,20.07
2023-08-22T04:33:16.649Z,20.23
2023-08-22T04:36:27.266Z,20.41
2023-08-22T04:39:39.220Z,20.66
2023-08-22T04:42:58.528Z,20.83
2023-08-22T04:46:11.414Z,21.08
2023-08-22T04:49:31.347Z,21.45
2023-08-22T04:52:50.307Z,21.54
2023-08-22T04:56:01.649Z,21.54
2023-08-22T04:59:19.697Z,21.54
2023-08-22T05:02:30.324Z,21.51
2023-08-22T05:05:41.684Z,21.47
2023-08-22T05:09:08.045Z,21.44
2023-08-22T05:12:32.325Z,21.45
2023-08-22T05:15:56.937Z,21.50
2023-08-22T05:19:19.816Z,21.53
2023-08-22T05:22:23.654Z,21.51
2023-08-22T05:25:30.171Z,21.52
2023-08-22T05:28:34.207Z,21.56
2023-08-22T05:31:37.869Z,21.60
2023-08-22T05:34:41.830Z,21.66
2023-08-22T05:37:49.694Z,21.77
2023-08-22T05:40:55.186Z,21.99
2023-08-22T05:44:00.766Z,22.24
2023-08-22T05:47:06.101Z,22.45
2023-08-22T05:50:09.587Z,22.61
2023-08-22T05:53:12.884Z,22.78
2023-08-22T05:56:15.753Z,22.95
2023-08-22T05:59:19.401Z,23.09
2023-08-22T06:02:22.393Z,23.24
2023-08-22T06:05:26.067Z,23.39
2023-08-22T06:08:28.882Z,23.47
2023-08-22T06:11:32.634Z,23.55
2023-08-22T06:14:35.712Z,23.65
2023-08-22T06:17:38.997Z,23.76
2023-08-22T06:20:42.092Z,23.88
2023-08-22T06:23:44.968Z,24.04
2023-08-22T06:26:49.905Z,24.20
2023-08-22T06:29:52.803Z,24.28
2023-08-22T06:32:55.768Z,24.40
2023-08-22T06:35:58.710Z,24.55
2023-08-22T06:39:01.542Z,24.68
2023-08-22T06:42:08.193Z,24.76
2023-08-22T06:45:11.193Z,24.85
2023-08-22T06:48:23.760Z,24.89
2023-08-22T06:51:42.368Z,25.06
2023-08-22T11:10:53.601Z,30.00
2023-08-22T11:14:00.747Z,29.98
2023-08-22T11:17:04.651Z,29.99
2023-08-22T11:20:37.717Z,30.08
2023-08-22T11:23:43.792Z,30.06
2023-08-22T11:26:56.013Z,30.07
2023-08-22T11:30:07.622Z,30.16
2023-08-22T11:33:21.265Z,30.28
2023-08-22T11:36:33.861Z,30.34
2023-08-22T11:39:39.556Z,30.38
2023-08-22T11:42:50.399Z,30.42
2023-08-22T11:45:55.996Z,30.44
2023-08-22T11:49:07.711Z,30.51
2023-08-22T11:52:29.478Z,30.58
2023-08-22T11:55:35.330Z,30.65
2023-08-22T11:58:53.989Z,30.73
2023-08-22T12:02:15.377Z,30.81
2023-08-22T12:05:37.699Z,30.80
2023-08-22T12:08:57.480Z,30.77
2023-08-22T12:12:16.372Z,30.77
2023-08-22T12:15:23.308Z,30.74
2023-08-22T12:18:49.293Z,30.80
2023-08-22T12:21:58.131Z,30.85
2023-08-22T12:25:10.463Z,30.90
2023-08-22T12:28:15.873Z,30.92
2023-08-22T12:31:22.132Z,30.90
2023-08-22T12:34:27.542Z,30.91
2023-08-22T12:37:46.422Z,30.93
2023-08-22T12:41:08.811Z,30.96
2023-08-22T12:44:13.164Z,31.02
2023-08-22T12:47:20.608Z,31.10
2023-08-22T12:50:28.478Z,31.17
2023-08-22T12:53:33.563Z,31.23
2023-08-22T12:56:55.859Z,31.27
2023-08-22T13:00:01.085Z,31.32
2023-08-22T13:03:05.167Z,31.35
2023-08-22T13:06:11.125Z,31.37
2023-08-22T13:09:16.948Z,31.38
2023-08-22T13:12:24.696Z,31.40
2023-08-22T13:15:38.685Z,31.45
2023-08-22T13:18:51.790Z,31.55
2023-08-22T13:22:00.266Z,31.58
2023-08-22T13:25:15.521Z,31.59
2023-08-22T13:28:19.617Z,31.61
2023-08-22T13:31:24.925Z,31.72
2023-08-22T13:34:28.531Z,31.82
2023-08-22T13:37:35.137Z,31.90
2023-08-22T13:40:47.521Z,31.97
2023-08-22T13:43:54.627Z,32.00
2023-08-22T13:47:00.484Z,31.93
2023-08-22T13:50:25.976Z,31.84
2023-08-22T13:54:10.607Z,31.76
2023-08-22T13:57:35.622Z,31.77
2023-08-22T14:00:43.335Z,31.73
2023-08-22T14:04:06.548Z,31.63
2023-08-22T14:07:25.436Z,31.57
2023-08-22T14:10:32.568Z,31.58
2023-08-22T14:14:01.984Z,31.56
2023-08-22T14:17:10.163Z,31.54
2023-08-22T14:20:19.170Z,31.55
2023-08-22T14:23:24.166Z,31.54
2023-08-22T14:26:38.351Z,31.54
2023-08-22T14:29:47.332Z,31.58
2023-08-22T14:32:58.003Z,31.67
2023-08-22T14:36:10.159Z,31.69
2023-08-22T14:41:19.427Z,31.78
2023-08-22T14:44:27.225Z,31.86
2023-08-22T14:47:32.463Z,31.92
2023-08-22T14:50:45.708Z,31.87
2023-08-22T14:53:53.362Z,31.78
2023-08-22T14:56:58.361Z,31.71
2023-08-22T15:00:05.736Z,31.64
2023-08-22T15:03:11.343Z,31.55
2023-08-22T15:06:54.443Z,31.44
2023-08-22T15:10:08.364Z,31.40
2023-08-22T15:13:23.277Z,31.35
2023-08-22T15:16:27.642Z,31.33
2023-08-22T15:19:32.371Z,31.34
2023-08-22T15:22:56.774Z,31.36
2023-08-22T15:26:48.883Z,31.40
2023-08-22T15:30:08.977Z,31.45
2023-08-22T15:33:12.893Z,31.35
2023-08-22T15:36:45.576Z,31.15
2023-08-22T15:39:52.535Z,30.95
2023-08-22T15:43:01.033Z,30.88
2023-08-22T15:46:07.658Z,30.90
2023-08-22T15:49:13.586Z,30.87
2023-08-22T15:52:57.914Z,30.87
2023-08-22T15:56:08.950Z,30.90
2023-08-22T15:59:42.531Z,30.89
2023-08-22T16:03:26.242Z,30.80
2023-08-22T16:06:29.825Z,30.68
2023-08-22T16:10:10.568Z,30.53
2023-08-22T16:13:17.605Z,30.39
2023-08-22T16:16:30.678Z,30.37
2023-08-22T16:20:02.245Z,30.37
2023-08-22T16:23:32.427Z,30.32
2023-08-22T16:26:53.617Z,30.25
2023-08-22T16:30:23.998Z,30.21
2023-08-22T16:33:32.410Z,30.16
2023-08-22T16:36:56.117Z,30.09
2023-08-22T16:40:05.313Z,30.04
2023-08-22T16:43:48.694Z,29.94
2023-08-22T16:47:07.060Z,29.82
2023-08-22T16:50:21.688Z,29.71
2023-08-22T16:53:40.858Z,29.55
2023-08-22T16:57:01.284Z,29.40
2023-08-22T17:00:26.114Z,29.31
2023-08-22T17:03:34.188Z,29.25
2023-08-22T17:07:13.968Z,29.19
2023-08-22T17:10:45.195Z,29.11
2023-08-22T17:14:05.446Z,29.05
2023-08-22T17:17:13.361Z,29.00
2023-08-22T17:20:34.406Z,28.97
2023-08-22T17:23:45.192Z,28.89
2023-08-22T17:27:28.785Z,28.79
2023-08-22T17:31:15.411Z,28.68
2023-08-22T17:34:22.869Z,28.49
2023-08-22T17:38:21.949Z,28.27
2023-08-22T17:41:40.807Z,27.96
2023-08-22T17:44:48.822Z,27.64
2023-08-22T17:48:16.692Z,27.35
2023-08-22T17:52:02.380Z,27.06
2023-08-22T17:55:21.575Z,26.85
2023-08-22T17:58:49.566Z,26.66
2023-08-22T18:02:13.114Z,26.41
2023-08-22T18:05:41.078Z,26.09
2023-08-22T18:09:15.678Z,25.81
2023-08-22T18:12:49.270Z,25.58
2023-08-22T18:16:35.292Z,25.36
2023-08-22T18:19:56.759Z,25.18
2023-08-22T18:23:16.377Z,25.02
2023-08-22T18:26:44.476Z,24.87
2023-08-22T18:29:53.451Z,24.73
2023-08-22T18:33:17.829Z,24.60
2023-08-22T18:36:33.650Z,24.48
2023-08-22T18:39:57.633Z,24.37
2023-08-22T18:43:25.768Z,24.28
2023-08-22T18:46:51.568Z,24.19
2023-08-22T18:50:17.325Z,24.10
2023-08-22T18:53:30.367Z,24.03
2023-08-22T18:56:57.339Z,23.98
2023-08-22T19:00:23.949Z,23.92
2023-08-22T19:03:32.939Z,23.86
2023-08-22T19:07:04.733Z,23.80
2023-08-22T19:10:30.428Z,23.74
2023-08-22T19:13:55.964Z,23.69
2023-08-22T19:17:26.708Z,23.64
2023-08-22T19:21:18.126Z,23.59
2023-08-22T19:24:39.846Z,23.52
2023-08-22T19:28:02.155Z,23.51
2023-08-22T19:31:17.551Z,23.52
2023-08-22T19:34:37.466Z,23.49
2023-08-22T19:38:01.296Z,23.47
2023-08-22T19:41:21.642Z,23.48
2023-08-22T19:44:42.248Z,23.48
2023-08-22T19:48:07.650Z,23.47
2023-08-22T19:51:40.591Z,23.45
2023-08-22T19:55:06.969Z,23.39
2023-08-22T19:58:41.200Z,23.30
2023-08-22T20:02:13.453Z,23.19
2023-08-22T20:05:28.546Z,23.09
2023-08-22T20:09:20.249Z,23.00
2023-08-22T20:12:46.594Z,22.92
2023-08-22T20:16:06.838Z,22.87
2023-08-22T20:19:26.009Z,22.84
2023-08-22T20:22:50.507Z,22.82
2023-08-22T20:26:23.140Z,22.79
2023-08-22T20:29:43.840Z,22.74
2023-08-22T20:33:08.412Z,22.69
2023-08-22T20:36:24.275Z,22.65
2023-08-22T20:39:43.452Z,22.61
2023-08-22T20:43:04.494Z,22.58
2023-08-22T20:46:31.388Z,22.55
2023-08-22T20:49:58.041Z,22.52
2023-08-22T20:53:47.828Z,22.49
2023-08-22T20:57:11.390Z,22.48
2023-08-22T21:00:34.260Z,22.48
2023-08-22T21:03:51.166Z,22.49
2023-08-22T21:07:22.288Z,22.50
2023-08-22T21:10:42.530Z,22.50
2023-08-22T21:14:04.037Z,22.50
2023-08-22T21:17:24.308Z,22.50
2023-08-22T21:20:37.442Z,22.49
2023-08-22T21:24:15.287Z,22.48
2023-08-22T21:28:04.447Z,22.49
2023-08-22T21:31:44.894Z,22.51
2023-08-22T21:34:58.178Z,22.51
2023-08-22T21:38:17.076Z,22.51
2023-08-22T21:41:40.299Z,22.51
2023-08-22T21:45:01.951Z,22.49
2023-08-22T21:48:23.691Z,22.46
2023-08-22T21:52:02.743Z,22.42
2023-08-22T21:55:26.908Z,22.38
2023-08-22T21:58:49.905Z,22.33
2023-08-22T22:02:11.492Z,22.29
2023-08-22T22:05:38.972Z,22.23
2023-08-22T22:08:58.853Z,22.18
2023-08-22T22:12:33.393Z,22.13
2023-08-22T22:15:57.294Z,22.08
2023-08-22T22:19:24.143Z,22.03
2023-08-22T22:23:11.503Z,21.99
2023-08-22T22:26:30.402Z,21.95
2023-08-22T22:29:49.112Z,21.93
2023-08-22T22:33:15.286Z,21.90
2023-08-22T22:36:34.112Z,21.88
2023-08-22T22:39:55.736Z,21.85
2023-08-22T22:43:14.041Z,21.83
2023-08-22T22:46:41.035Z,21.81
2023-08-22T22:50:07.207Z,21.81
2023-08-22T22:53:48.257Z,21.82
2023-08-22T22:57:06.518Z,21.83
2023-08-22T23:00:19.591Z,21.86
2023-08-22T23:03:58.007Z,21.89
2023-08-22T23:07:17.031Z,21.90
2023-08-22T23:10:38.845Z,21.92
2023-08-22T23:14:06.894Z,21.94
2023-08-22T23:17:45.968Z,21.92
2023-08-22T23:21:09.550Z,21.91
2023-08-22T23:24:29.141Z,21.90
2023-08-22T23:27:53.676Z,21.88
2023-08-22T23:31:26.015Z,21.83
2023-08-22T23:34:50.539Z,21.77
2023-08-22T23:38:22.096Z,21.72
2023-08-22T23:41:49.600Z,21.65
2023-08-22T23:45:17.394Z,21.60
2023-08-22T23:48:40.733Z,21.58
2023-08-22T23:52:04.435Z,21.58
2023-08-22T23:55:15.861Z,21.59
2023-08-22T23:58:40.921Z,21.58
